Hurlburt Field Mary Esther US
ICAO: KHRT
IATA: HRT
Category: Medium
Scheduled Services: No

Elevation: 38 ft
TransAlt. 18000 ft.

Airport Communications:
EGLIN APP:37.915
EGLIN APP:133
ATIS:36.067
EGLIN DEP:132.1
GND:123.975
PMSV METRO:39.075
COMD POST:140.4
PTD:37.22
TWR:126.5

KHRT Zoom In..

If Map Doesn't Load, Click Here

Runways:

(A) RW 18 length 9600 ft width 150 ft
---- / hdg 178

(B) RW 36 length 9600 ft width 150 ft
ILS 111.30 / hdg 358

Location; KHRT
Day. 26 / Time. 10.21 Zulu
* Altimeter: 30.03
* Temperature: 24° c. 75.2°f.
* Wind from: 000° Speed 00 kn.
Dewpoint: 21° c.
Visibility: 10 Statute Miles.
Clouds: Scattered 2100 ft.

KHRT 261021Z 00000KT 10SM SCT021 24/21 A3003 RMK AO2A LTG DSNT NW SLP171 $


Wind - Calm.

 
 
jpsmedia.com for Web Design worldairports.se 2018   terms of use